Thursday, February 11, 2016, 7:54 AM EST
Back to Local

KMPO, Mt Pocono Pocono Mountains

Location: Pocono Summit, PA, United States Lat: 41.133
Local Time: 7:54 AM EST (12:54 GMT) Lon: -75.383
Time Zone: US/Eastern Elev: 1915 ft

Show me the last for .
Show Decoded

2016-02-11 06:53 METAR KMPO 111153Z AUTO 28011KT 10SM CLR M13/M18 A2972 RMK AO2 SLP097 60000
                 T11281183 11089 21128 51011 =
2016-02-11 05:53 METAR KMPO 111053Z AUTO 29013G18KT 10SM CLR M12/M18 A2971 RMK AO2 SLP092
                 T11221183 =
2016-02-11 04:53 METAR KMPO 110953Z AUTO 30012KT 10SM CLR M12/M18 A2969 RMK AO2 SLP087 T11171183
                 =
2016-02-11 03:53 METAR KMPO 110853Z AUTO 29012G18KT 10SM CLR M11/M19 A2968 RMK AO2 SLP081 60000
                 T11111194 52005 =
2016-02-11 02:53 METAR KMPO 110753Z AUTO 30013G23KT 10SM BKN070 BKN080 M10/M19 A2968 RMK AO2 PK
                 WND 31030/0658 SLP080 T11001194 =
2016-02-11 01:53 METAR KMPO 110653Z AUTO 30019G31KT 8SM OVC070 M09/M19 A2967 RMK AO2 PK WND
                 31031/0649 UPB35E46SNE33 SLP075 P0000 T10941189 =
2016-02-11 01:33 METAR KMPO 110633Z AUTO 31019G28KT 8SM BKN041 OVC070 M09/M14 A2967 RMK AO2 PK
                 WND 32028/0633 SNE33 P0000 T10891139 =
2016-02-11 01:24 METAR KMPO 110624Z AUTO 30014G22KT 2SM -SN BKN033 OVC070 M09/M13 A2967 RMK AO2
                 P0000 T10941128 =
2016-02-11 00:58 METAR KMPO 110558Z AUTO 30014G25KT 3SM -SN OVC031 M09/M13 A2967 RMK AO2 P0000
                 T10891128 =
2016-02-11 00:53 METAR KMPO 110553Z AUTO 30017G25KT 1 1/4SM -SN OVC023 M09/M12 A2967 RMK AO2
                 SLP074 P0000 60000 T10891122 11056 21089 51003 =
2016-02-11 00:45 METAR KMPO 110545Z AUTO 29016G21KT 3/4SM -SN VV015 M09/M12 A2967 RMK AO2 P0000
                 T10891117 =
2016-02-11 00:36 METAR KMPO 110536Z AUTO 30013G21KT 2SM -SN OVC019 M08/M12 A2967 RMK AO2 P0000
                 T10831122 =
2016-02-11 00:32 METAR KMPO 110532Z AUTO 30013G21KT 1SM -SN VV014 M08/M12 A2967 RMK AO2 P0000
                 T10831117 =
2016-02-11 00:21 METAR KMPO 110521Z AUTO 30012G23KT 3/4SM -SN VV009 M08/M12 A2967 RMK AO2 P0000
                 T10831117 =
2016-02-10 23:53 METAR KMPO 110453Z AUTO 28017G22KT 1SM -SN VV012 M08/M11 A2967 RMK AO2 SLP073
                 P0000 T10831111 410221083 =
2016-02-10 23:49 METAR KMPO 110449Z AUTO 29014G20KT 1SM -SN VV012 M08/M11 A2966 RMK AO2 P0000 =
2016-02-10 23:33 METAR KMPO 110433Z AUTO 28012G21KT 1 3/4SM -SN OVC019 M08/M11 A2966 RMK AO2
                 P0000 T10781111 =
2016-02-10 23:16 METAR KMPO 110416Z AUTO 29014G24KT 2 1/2SM -SN OVC029 M08/M11 A2966 RMK AO2
                 P0000 T10781111 =
2016-02-10 23:00 METAR KMPO 110400Z AUTO 28013G19KT 3SM -SN OVC031 M08/M11 A2966 RMK AO2 P0000
                 T10781111 =
2016-02-10 22:53 METAR KMPO 110353Z AUTO 28013G19KT 2 1/2SM -SN OVC025 M08/M11 A2966 RMK AO2
                 SNB20 SLP070 P0000 T10781111 =
2016-02-10 22:35 METAR KMPO 110335Z AUTO 27010G20KT 2 1/2SM -SN OVC029 M07/M11 A2966 RMK AO2
                 SNB20 P0000 T10721111 =
2016-02-10 21:53 METAR KMPO 110253Z AUTO 28014G22KT 8SM FEW020 OVC080 M07/M12 A2965 RMK AO2
                 SNB41E47 SLP066 P0000 60000 T10671117 53005 =
2016-02-10 20:53 METAR KMPO 110153Z AUTO 28015G20KT 10SM OVC080 M06/M11 A2963 RMK AO2 SLP060
                 T10611111 =
2016-02-10 19:53 METAR KMPO 110053Z AUTO 28013KT 9SM BKN042 OVC080 M06/M11 A2964 RMK AO2 SLP063
                 T10561106 =
2016-02-10 18:53 METAR KMPO 102353Z AUTO 28011KT 10SM SCT041 M06/M10 A2963 RMK AO2 SLP059 60000
                 T10561100 11022 21056 53018 =
2016-02-10 17:53 METAR KMPO 102253Z AUTO 27012KT 10SM CLR M05/M10 A2961 RMK AO2 SLP052 T10501100
                 =
2016-02-10 16:53 METAR KMPO 102153Z AUTO 28012G24KT 10SM OVC031 M04/M11 A2958 RMK AO2 SLP042
                 T10391106 =
2016-02-10 15:53 METAR KMPO 102053Z AUTO 27014G21KT 10SM OVC031 M03/M10 A2957 RMK AO2 SLP037
                 60000 T10281100 53011 =
2016-02-10 15:31 METAR KMPO 102031Z AUTO 27013G21KT 10SM OVC031 M03/M09 A2956 RMK AO2 T10281094 =
2016-02-10 14:53 METAR KMPO 101953Z AUTO 28013G20KT 10SM OVC027 M03/M09 A2956 RMK AO2 SNB08E23
                 SLP031 P0000 T10281089 =
2016-02-10 13:53 METAR KMPO 101853Z AUTO 29016G23KT 10SM BKN026 OVC033 M02/M08 A2954 RMK AO2
                 SLP026 T10221083 =
2016-02-10 12:53 METAR KMPO 101753Z AUTO 27016G23KT 10SM OVC028 M03/M08 A2954 RMK AO2 SLP026
                 T10281083 11022 21044 58003 =
2016-02-10 11:53 METAR KMPO 101653Z AUTO 29013G22KT 10SM BKN028 M03/M09 A2955 RMK AO2 SLP028
                 T10281089 =
2016-02-10 10:53 METAR KMPO 101553Z AUTO 29014G21KT 10SM BKN028 M02/M09 A2955 RMK AO2 SLP030
                 T10221089 =
2016-02-10 09:53 METAR KMPO 101453Z AUTO 29017G23KT 10SM FEW018 OVC026 M03/M08 A2955 RMK AO2
                 SLP029 T10331078 51015 =
2016-02-10 09:14 METAR KMPO 101414Z AUTO 29016G21KT 9SM FEW017 BKN029 OVC035 M03/M07 A2955 RMK
                 AO2 T10331072 =
2016-02-10 08:53 METAR KMPO 101353Z AUTO 28010KT 10SM OVC034 M03/M07 A2954 RMK AO2 SLP027
                 T10331072 =
2016-02-10 08:02 METAR KMPO 101302Z AUTO 29010KT 10SM SCT012 BKN031 M04/M07 A2952 RMK AO2
                 T10441067 =

Support USWX by starting your Amazon purchase here.